createdAt,value
2017-04-28T00:00:41.668Z,41.95
2017-04-28T00:03:08.736Z,47.77
2017-04-28T00:05:35.813Z,43.87
2017-04-28T00:08:02.989Z,42.77
2017-04-28T00:10:30.056Z,40.00
2017-04-28T00:12:57.105Z,41.85
2017-04-28T00:15:24.204Z,46.57
2017-04-28T00:17:51.298Z,43.63
2017-04-28T00:20:18.347Z,44.68
2017-04-28T00:22:45.455Z,44.82
2017-04-28T00:25:12.553Z,43.62
2017-04-28T00:27:39.684Z,44.57
2017-04-28T00:30:06.732Z,39.92
2017-04-28T00:32:33.782Z,53.47
2017-04-28T00:35:00.851Z,47.67
2017-04-28T00:37:27.949Z,51.88
2017-04-28T00:39:55.037Z,51.32
2017-04-28T00:42:22.096Z,49.88
2017-04-28T00:44:49.187Z,44.30
2017-04-28T00:47:16.231Z,45.33
2017-04-28T00:49:43.308Z,48.18
2017-04-28T00:52:10.337Z,51.42
2017-04-28T00:54:37.429Z,47.17
2017-04-28T00:57:04.495Z,49.22
2017-04-28T00:59:32.335Z,51.03
2017-04-28T01:01:59.603Z,49.42
2017-04-28T01:04:26.653Z,53.05
2017-04-28T01:06:53.748Z,53.02
2017-04-28T01:09:20.865Z,46.48
2017-04-28T01:11:47.975Z,47.28
2017-04-28T01:14:15.047Z,50.60
2017-04-28T01:16:42.129Z,51.77
2017-04-28T01:19:09.177Z,47.45
2017-04-28T01:21:36.229Z,52.52
2017-04-28T01:24:03.306Z,47.93
2017-04-28T01:26:31.173Z,46.00
2017-04-28T01:28:59.080Z,47.17
2017-04-28T01:31:26.187Z,45.62
2017-04-28T01:33:53.219Z,45.02
2017-04-28T01:36:20.358Z,47.60
2017-04-28T01:38:47.427Z,48.53
2017-04-28T01:41:14.499Z,49.10
2017-04-28T01:43:41.541Z,49.40
2017-04-28T01:46:08.649Z,44.97
2017-04-28T01:48:35.737Z,48.53
2017-04-28T01:51:02.808Z,47.90
2017-04-28T01:53:29.856Z,43.15
2017-04-28T01:55:56.936Z,46.35
2017-04-28T01:58:24.780Z,43.80
2017-04-28T02:00:51.859Z,45.62
2017-04-28T02:03:19.660Z,40.73
2017-04-28T02:05:46.704Z,45.12
2017-04-28T02:08:13.751Z,45.58
2017-04-28T02:10:40.816Z,45.63
2017-04-28T02:13:07.879Z,48.95
2017-04-28T02:15:34.952Z,50.98
2017-04-28T02:18:02.050Z,47.60
2017-04-28T02:20:29.084Z,56.50
2017-04-28T02:22:56.175Z,48.92
2017-04-28T02:25:23.252Z,47.93
2017-04-28T02:27:50.317Z,50.13
2017-04-28T02:30:17.381Z,49.80
2017-04-28T02:32:44.411Z,58.02
2017-04-28T02:35:11.516Z,47.62
2017-04-28T02:37:38.561Z,49.08
2017-04-28T02:40:05.653Z,55.55
2017-04-28T02:42:32.759Z,54.22
2017-04-28T02:44:59.823Z,59.17
2017-04-28T02:47:26.885Z,59.50
2017-04-28T02:49:54.017Z,61.97
2017-04-28T02:52:21.140Z,59.83
2017-04-28T02:54:48.197Z,57.00
2017-04-28T02:57:15.257Z,61.47
2017-04-28T02:59:42.328Z,57.10
2017-04-28T03:02:09.740Z,59.18
2017-04-28T03:04:36.810Z,55.50
2017-04-28T03:07:03.921Z,58.97
2017-04-28T03:09:31.017Z,56.98
2017-04-28T03:11:58.073Z,56.20
2017-04-28T03:14:25.153Z,55.72
2017-04-28T03:16:52.211Z,59.47
2017-04-28T03:19:19.321Z,60.27
2017-04-28T03:21:46.400Z,55.48
2017-04-28T03:24:13.436Z,51.78
2017-04-28T03:26:40.501Z,57.63
2017-04-28T03:29:07.656Z,54.02
2017-04-28T03:31:34.704Z,50.32
2017-04-28T03:34:01.768Z,54.08
2017-04-28T03:36:28.803Z,55.48
2017-04-28T03:38:55.889Z,52.87
2017-04-28T03:41:22.945Z,61.08
2017-04-28T03:43:49.992Z,57.82
2017-04-28T03:46:17.024Z,57.62
2017-04-28T03:48:44.066Z,57.92
2017-04-28T03:51:11.165Z,51.07
2017-04-28T03:53:38.235Z,49.17
2017-04-28T03:56:05.457Z,59.32
2017-04-28T03:58:32.500Z,49.92
2017-04-28T04:00:59.543Z,45.45
2017-04-28T04:03:26.575Z,58.67
2017-04-28T04:05:54.373Z,52.55
2017-04-28T04:08:21.464Z,62.58
2017-04-28T04:10:48.515Z,58.42
2017-04-28T04:13:15.624Z,57.80
2017-04-28T04:15:42.705Z,64.08
2017-04-28T04:18:09.780Z,54.43
2017-04-28T04:20:36.860Z,60.27
2017-04-28T04:23:04.652Z,64.32
2017-04-28T04:25:31.761Z,63.57
2017-04-28T04:27:58.845Z,59.75
2017-04-28T04:30:25.939Z,52.60
2017-04-28T04:32:52.969Z,61.17
2017-04-28T04:35:20.098Z,56.98
2017-04-28T04:37:47.906Z,61.10
2017-04-28T04:40:14.980Z,65.48
2017-04-28T04:42:42.120Z,57.90
2017-04-28T04:45:09.164Z,63.02
2017-04-28T04:47:36.298Z,58.97
2017-04-28T04:50:03.390Z,54.40
2017-04-28T04:52:30.455Z,55.82
2017-04-28T04:54:57.568Z,57.70
2017-04-28T04:57:24.713Z,54.57
2017-04-28T04:59:51.864Z,48.32
2017-04-28T05:02:19.787Z,51.57
2017-04-28T05:04:46.869Z,53.55
2017-04-28T05:07:13.963Z,56.02
2017-04-28T05:09:41.020Z,61.73
2017-04-28T05:12:08.080Z,56.65
2017-04-28T05:14:35.167Z,58.73
2017-04-28T05:17:02.201Z,56.97
2017-04-28T05:19:29.227Z,60.70
2017-04-28T05:21:56.295Z,57.95
2017-04-28T05:24:23.528Z,56.17
2017-04-28T05:26:50.588Z,60.32
2017-04-28T05:29:17.684Z,58.43
2017-04-28T05:31:44.768Z,67.87
2017-04-28T05:34:12.599Z,62.80
2017-04-28T05:36:39.857Z,57.97
2017-04-28T05:39:06.904Z,57.75
2017-04-28T05:41:33.953Z,61.53
2017-04-28T05:44:01.023Z,60.47
2017-04-28T05:46:28.121Z,57.83
2017-04-28T05:48:55.916Z,64.33
2017-04-28T05:51:22.988Z,61.37
2017-04-28T05:53:50.041Z,62.13
2017-04-28T05:56:17.102Z,64.65
2017-04-28T05:58:44.160Z,66.13
2017-04-28T06:01:11.247Z,62.47
2017-04-28T06:03:39.080Z,61.08
2017-04-28T06:06:06.145Z,53.95
2017-04-28T06:08:33.271Z,59.37
2017-04-28T06:11:00.358Z,55.43
2017-04-28T06:13:27.919Z,52.60
2017-04-28T06:15:54.996Z,50.92
2017-04-28T06:18:22.845Z,50.27
2017-04-28T06:20:50.067Z,49.83
2017-04-28T06:23:17.162Z,51.10
2017-04-28T06:25:44.223Z,50.27
2017-04-28T06:28:11.275Z,49.35
2017-04-28T06:30:38.369Z,52.40
2017-04-28T06:33:05.434Z,48.00
2017-04-28T06:35:32.518Z,48.57
2017-04-28T06:37:59.643Z,51.60
2017-04-28T06:40:26.711Z,46.53
2017-04-28T06:42:53.776Z,50.17
2017-04-28T06:45:20.821Z,48.47
2017-04-28T06:47:47.933Z,53.80
2017-04-28T06:50:15.019Z,54.32
2017-04-28T06:52:42.173Z,54.33
2017-04-28T06:55:09.298Z,57.00
2017-04-28T06:57:36.437Z,54.80
2017-04-28T07:00:05.290Z,56.43
2017-04-28T07:02:32.357Z,55.92
2017-04-28T07:04:59.486Z,57.25
2017-04-28T07:07:26.545Z,55.83
2017-04-28T07:09:53.594Z,52.58
2017-04-28T07:12:20.628Z,48.65
2017-04-28T07:14:47.704Z,52.87
2017-04-28T07:17:14.793Z,61.07
2017-04-28T07:19:42.629Z,57.25
2017-04-28T07:22:09.768Z,64.95
2017-04-28T07:24:36.829Z,60.97
2017-04-28T07:27:03.889Z,51.42
2017-04-28T07:29:30.964Z,56.43
2017-04-28T07:31:58.007Z,52.13
2017-04-28T07:34:25.064Z,51.70
2017-04-28T07:36:52.137Z,54.13
2017-04-28T07:39:19.216Z,55.05
2017-04-28T07:41:46.988Z,53.08
2017-04-28T07:44:14.100Z,51.82
2017-04-28T07:46:41.192Z,52.36
2017-04-28T07:49:08.988Z,51.28
2017-04-28T07:51:36.092Z,56.44
2017-04-28T07:54:03.140Z,47.72
2017-04-28T07:56:30.205Z,49.60
2017-04-28T07:58:58.011Z,50.17
2017-04-28T08:01:25.116Z,47.96
2017-04-28T08:03:52.275Z,50.26
2017-04-28T08:06:19.395Z,52.32
2017-04-28T08:08:46.484Z,55.22
2017-04-28T08:11:14.290Z,48.82
2017-04-28T08:13:41.384Z,52.80
2017-04-28T08:16:15.524Z,51.98
2017-04-28T08:18:42.597Z,48.13
2017-04-28T08:21:10.463Z,47.17
2017-04-28T08:23:38.320Z,48.38
2017-04-28T08:26:05.509Z,47.03
2017-04-28T08:28:32.567Z,49.34
2017-04-28T08:30:59.637Z,42.48
2017-04-28T08:33:26.775Z,46.26
2017-04-28T08:35:53.895Z,44.42
2017-04-28T08:38:20.979Z,44.56
2017-04-28T08:40:48.103Z,45.00
2017-04-28T08:43:15.188Z,46.56
2017-04-28T08:45:42.247Z,48.92
2017-04-28T08:48:09.295Z,47.76
2017-04-28T08:50:36.395Z,50.70
2017-04-28T08:53:03.659Z,49.40
2017-04-28T08:55:30.748Z,43.35
2017-04-28T08:57:58.582Z,53.76
2017-04-28T09:00:25.660Z,56.22
2017-04-28T09:02:53.860Z,48.64
2017-04-28T09:05:21.680Z,50.36
2017-04-28T09:07:48.741Z,54.32
2017-04-28T09:10:15.799Z,47.70
2017-04-28T09:12:42.915Z,47.72
2017-04-28T09:15:09.968Z,52.68
2017-04-28T09:17:37.019Z,57.47
2017-04-28T09:20:04.095Z,50.02
2017-04-28T09:22:31.219Z,51.53
2017-04-28T09:24:58.313Z,47.20
2017-04-28T09:27:25.415Z,51.12
2017-04-28T09:29:52.475Z,46.94
2017-04-28T09:32:19.532Z,47.94
2017-04-28T09:34:46.569Z,44.18
2017-04-28T09:37:14.384Z,44.74
2017-04-28T09:39:41.452Z,45.64
2017-04-28T09:42:08.499Z,46.28
2017-04-28T09:44:35.600Z,38.62
2017-04-28T09:47:03.515Z,40.60
2017-04-28T09:49:30.597Z,42.16
2017-04-28T09:51:57.814Z,41.66
2017-04-28T09:54:24.885Z,39.46
2017-04-28T09:56:51.948Z,40.98
2017-04-28T09:59:19.085Z,39.58
2017-04-28T10:01:46.181Z,39.40
2017-04-28T10:04:13.292Z,44.22
2017-04-28T10:06:40.398Z,37.26
2017-04-28T10:09:08.818Z,35.74
2017-04-28T10:11:35.895Z,37.70
2017-04-28T10:14:04.151Z,37.74
2017-04-28T10:16:31.222Z,39.02
2017-04-28T10:18:58.305Z,40.56
2017-04-28T10:21:25.536Z,37.14
2017-04-28T10:23:52.585Z,42.30
2017-04-28T10:26:19.728Z,43.26
2017-04-28T10:28:46.855Z,44.94
2017-04-28T10:31:14.117Z,45.38
2017-04-28T10:33:41.168Z,37.08
2017-04-28T10:36:08.251Z,40.70
2017-04-28T10:38:35.308Z,48.66
2017-04-28T10:41:02.416Z,44.90
2017-04-28T10:43:30.208Z,42.12
2017-04-28T10:45:57.286Z,42.78
2017-04-28T10:48:24.320Z,35.50
2017-04-28T10:50:51.628Z,34.16
2017-04-28T10:53:18.697Z,37.48
2017-04-28T10:55:46.509Z,35.72
2017-04-28T10:58:13.604Z,39.14
2017-04-28T11:00:40.837Z,38.42
2017-04-28T11:03:07.969Z,39.14
2017-04-28T11:05:35.042Z,39.02
2017-04-28T11:08:02.237Z,44.12
2017-04-28T11:10:29.311Z,36.62
2017-04-28T11:12:57.157Z,25.18
2017-04-28T11:15:24.202Z,21.44
2017-04-28T11:17:51.260Z,27.12
2017-04-28T11:20:18.356Z,29.64
2017-04-28T11:22:45.937Z,28.14
2017-04-28T11:25:13.023Z,29.46
2017-04-28T11:27:40.076Z,24.70
2017-04-28T11:30:07.141Z,31.70
2017-04-28T11:32:34.252Z,30.98
2017-04-28T11:35:01.341Z,23.78
2017-04-28T11:37:28.411Z,24.36
2017-04-28T11:39:55.668Z,25.40
2017-04-28T11:42:22.747Z,25.76
2017-04-28T11:44:49.815Z,26.88
2017-04-28T11:47:17.144Z,20.20
2017-04-28T11:49:45.025Z,24.62
2017-04-28T11:52:12.108Z,22.22
2017-04-28T11:54:39.177Z,19.24
2017-04-28T11:57:06.272Z,21.42
2017-04-28T11:59:34.060Z,25.96
2017-04-28T12:02:01.401Z,27.06
2017-04-28T12:04:29.317Z,20.94
2017-04-28T12:06:56.388Z,21.72
2017-04-28T12:09:23.489Z,21.72
2017-04-28T12:11:51.296Z,24.44
2017-04-28T12:14:18.355Z,21.54
2017-04-28T12:16:45.450Z,15.38
2017-04-28T12:19:12.595Z,20.92
2017-04-28T12:21:39.712Z,16.26
2017-04-28T12:24:06.804Z,15.56
2017-04-28T12:26:33.942Z,18.45
2017-04-28T12:29:01.021Z,19.16
2017-04-28T12:31:28.107Z,18.12
2017-04-28T12:33:55.170Z,14.44
2017-04-28T12:36:22.257Z,18.70
2017-04-28T12:38:49.357Z,15.35
2017-04-28T12:41:18.211Z,18.00
2017-04-28T12:43:46.120Z,17.73
2017-04-28T12:46:14.039Z,18.66
2017-04-28T12:48:42.082Z,14.57
2017-04-28T12:51:09.908Z,14.90
2017-04-28T12:53:37.722Z,15.42
2017-04-28T12:56:05.563Z,17.66
2017-04-28T12:58:33.531Z,10.80
2017-04-28T13:01:01.426Z,24.74
2017-04-28T13:03:29.318Z,15.32
2017-04-28T13:05:57.248Z,15.26
2017-04-28T13:08:25.083Z,21.62
2017-04-28T13:10:52.867Z,13.44
2017-04-28T13:13:20.809Z,15.32
2017-04-28T13:15:48.587Z,16.50
2017-04-28T13:18:15.966Z,27.54
2017-04-28T13:20:43.468Z,21.50
2017-04-28T13:23:10.850Z,23.00
2017-04-28T13:25:38.206Z,19.46
2017-04-28T13:28:05.574Z,34.72
2017-04-28T13:30:32.801Z,18.74
2017-04-28T13:33:00.339Z,19.76
2017-04-28T13:35:27.633Z,25.42
2017-04-28T13:37:55.088Z,27.36
2017-04-28T13:40:22.561Z,16.84
2017-04-28T13:42:50.140Z,15.58
2017-04-28T13:45:17.609Z,13.24
2017-04-28T13:47:44.783Z,16.24
2017-04-28T13:50:12.162Z,14.54
2017-04-28T13:52:39.387Z,16.20
2017-04-28T13:55:06.556Z,15.30
2017-04-28T13:57:34.086Z,13.62
2017-04-28T14:00:01.204Z,14.16
2017-04-28T14:02:28.358Z,12.58
2017-04-28T14:04:55.514Z,14.28
2017-04-28T14:07:22.612Z,13.50
2017-04-28T14:09:49.844Z,13.48
2017-04-28T14:12:16.881Z,11.00
2017-04-28T14:14:44.012Z,9.96
2017-04-28T14:17:11.069Z,17.44
2017-04-28T14:19:38.249Z,16.20
2017-04-28T14:22:05.348Z,13.48
2017-04-28T14:24:33.515Z,12.74
2017-04-28T14:27:00.623Z,10.98
2017-04-28T14:29:27.704Z,13.20
2017-04-28T14:31:54.768Z,13.42
2017-04-28T14:34:21.839Z,11.52
2017-04-28T14:36:48.915Z,10.66
2017-04-28T14:39:16.085Z,11.18
2017-04-28T14:41:43.169Z,11.40
2017-04-28T14:44:10.240Z,11.58
2017-04-28T14:46:37.352Z,11.82
2017-04-28T14:49:04.479Z,10.74
2017-04-28T14:51:31.564Z,9.92
2017-04-28T14:53:58.667Z,11.58
2017-04-28T14:56:26.488Z,11.40
2017-04-28T14:58:53.578Z,12.58
2017-04-28T15:01:20.636Z,13.14
2017-04-28T15:03:48.439Z,13.90
2017-04-28T15:06:15.578Z,11.98
2017-04-28T15:08:42.641Z,12.28
2017-04-28T15:11:09.776Z,12.14
2017-04-28T15:13:37.662Z,13.46
2017-04-28T15:16:04.851Z,12.34
2017-04-28T15:18:31.989Z,13.06
2017-04-28T15:20:59.081Z,13.76
2017-04-28T15:23:26.262Z,13.68
2017-04-28T15:25:54.170Z,11.50
2017-04-28T15:28:21.249Z,13.78
2017-04-28T15:30:48.363Z,12.38
2017-04-28T15:33:16.253Z,10.46
2017-04-28T15:35:43.325Z,8.60
2017-04-28T15:38:10.390Z,12.16
2017-04-28T15:40:37.487Z,9.96
2017-04-28T15:43:05.329Z,7.58
2017-04-28T15:45:32.392Z,9.82
2017-04-28T15:47:59.474Z,10.72
2017-04-28T15:50:26.617Z,8.68
2017-04-28T15:52:54.458Z,8.74
2017-04-28T15:55:21.812Z,8.74
2017-04-28T15:57:48.885Z,8.72
2017-04-28T16:00:16.087Z,7.58
2017-04-28T16:02:43.186Z,8.48
2017-04-28T16:05:28.647Z,9.42
2017-04-28T16:07:56.122Z,9.52
2017-04-28T16:10:23.391Z,9.38
2017-04-28T16:12:50.650Z,9.06
2017-04-28T16:15:17.909Z,7.64
2017-04-28T16:17:45.169Z,8.68
2017-04-28T16:20:12.528Z,11.50
2017-04-28T16:22:39.877Z,9.66
2017-04-28T16:25:07.249Z,11.58
2017-04-28T16:27:34.565Z,11.66
2017-04-28T16:30:02.070Z,10.48
2017-04-28T16:32:29.361Z,7.40
2017-04-28T16:34:56.688Z,13.12
2017-04-28T16:37:24.734Z,13.64
2017-04-28T16:39:52.048Z,10.06
2017-04-28T16:42:19.578Z,10.88
2017-04-28T16:44:46.903Z,9.70
2017-04-28T16:47:14.207Z,8.90
2017-04-28T16:49:41.525Z,8.38
2017-04-28T16:52:08.847Z,9.20
2017-04-28T16:54:36.280Z,11.88
2017-04-28T16:57:03.608Z,10.14
2017-04-28T16:59:30.936Z,10.54
2017-04-28T17:01:58.249Z,10.92
2017-04-28T17:04:25.515Z,8.86
2017-04-28T17:06:53.610Z,12.30
2017-04-28T17:09:21.706Z,10.98
2017-04-28T17:11:48.995Z,16.50
2017-04-28T17:14:16.285Z,12.80
2017-04-28T17:16:43.588Z,8.22
2017-04-28T17:19:10.904Z,9.66
2017-04-28T17:21:38.216Z,6.30
2017-04-28T17:24:05.525Z,10.24
2017-04-28T17:26:32.827Z,8.28
2017-04-28T17:29:00.136Z,10.82
2017-04-28T17:31:27.487Z,7.54
2017-04-28T17:33:54.857Z,13.48
2017-04-28T17:36:22.153Z,8.78
2017-04-28T17:38:49.448Z,12.06
2017-04-28T17:41:16.766Z,12.68
2017-04-28T17:43:44.080Z,13.56
2017-04-28T17:46:11.381Z,12.62
2017-04-28T17:48:39.456Z,12.46
2017-04-28T17:51:07.496Z,11.82
2017-04-28T17:53:34.772Z,13.60
2017-04-28T17:58:46.747Z,11.98
2017-04-28T18:01:14.082Z,12.12
2017-04-28T18:03:41.362Z,11.36
2017-04-28T18:06:08.659Z,12.48
2017-04-28T18:08:36.047Z,13.00
2017-04-28T18:11:03.753Z,13.02
2017-04-28T18:13:31.056Z,13.42
2017-04-28T18:15:59.196Z,13.38
2017-04-28T18:18:26.517Z,13.32
2017-04-28T18:20:54.811Z,13.28
2017-04-28T18:23:23.014Z,13.78
2017-04-28T18:25:50.410Z,15.56
2017-04-28T18:28:17.718Z,12.74
2017-04-28T18:30:52.003Z,12.84
2017-04-28T18:33:20.008Z,13.52
2017-04-28T18:35:47.328Z,13.74
2017-04-28T18:38:15.327Z,14.78
2017-04-28T18:40:42.631Z,12.88
2017-04-28T18:43:09.942Z,14.48
2017-04-28T18:45:37.276Z,13.66
2017-04-28T18:48:05.366Z,16.34
2017-04-28T18:50:32.696Z,14.57
2017-04-28T18:53:00.061Z,16.94
2017-04-28T18:55:27.400Z,13.48
2017-04-28T18:57:54.848Z,16.26
2017-04-28T19:00:22.563Z,13.68
2017-04-28T19:02:50.621Z,15.26
2017-04-28T19:05:18.027Z,15.92
2017-04-28T19:07:45.456Z,15.23
2017-04-28T19:10:12.897Z,18.18
2017-04-28T19:12:40.197Z,16.63
2017-04-28T19:15:07.637Z,23.07
2017-04-28T19:17:35.740Z,19.43
2017-04-28T19:20:03.076Z,20.10
2017-04-28T19:22:31.088Z,25.75
2017-04-28T19:24:58.410Z,22.47
2017-04-28T19:27:26.479Z,25.90
2017-04-28T19:29:53.812Z,19.27
2017-04-28T19:32:21.164Z,20.27
2017-04-28T19:34:48.510Z,17.52
2017-04-28T19:37:15.829Z,17.40
2017-04-28T19:39:43.963Z,16.28
2017-04-28T19:42:11.280Z,17.70
2017-04-28T19:44:38.541Z,15.80
2017-04-28T19:47:05.924Z,15.78
2017-04-28T19:49:33.435Z,16.35
2017-04-28T19:52:00.725Z,22.82
2017-04-28T19:54:28.085Z,20.95
2017-04-28T19:56:55.538Z,17.70
2017-04-28T19:59:23.568Z,18.23
2017-04-28T20:01:50.846Z,16.65
2017-04-28T20:04:18.297Z,18.85
2017-04-28T20:06:45.643Z,16.85
2017-04-28T20:09:13.022Z,16.10
2017-04-28T20:11:40.361Z,16.53
2017-04-28T20:14:07.659Z,16.48
2017-04-28T20:16:35.760Z,18.95
2017-04-28T20:19:03.064Z,20.38
2017-04-28T20:21:30.414Z,21.68
2017-04-28T20:23:57.721Z,16.95
2017-04-28T20:26:25.804Z,17.60
2017-04-28T20:28:53.936Z,17.13
2017-04-28T20:31:21.266Z,19.22
2017-04-28T20:33:48.634Z,18.40
2017-04-28T20:36:15.987Z,20.80
2017-04-28T20:38:43.354Z,17.62
2017-04-28T20:41:10.662Z,19.96
2017-04-28T20:43:37.997Z,20.85
2017-04-28T20:46:05.325Z,18.77
2017-04-28T20:48:32.648Z,16.62
2017-04-28T20:51:00.789Z,21.67
2017-04-28T20:53:28.393Z,19.85
2017-04-28T20:55:56.450Z,22.78
2017-04-28T20:58:23.748Z,36.82
2017-04-28T21:00:51.061Z,24.98
2017-04-28T21:03:18.342Z,26.65
2017-04-28T21:05:46.408Z,27.00
2017-04-28T21:08:13.729Z,22.00
2017-04-28T21:10:41.015Z,24.97
2017-04-28T21:13:08.368Z,21.40
2017-04-28T21:15:35.692Z,21.63
2017-04-28T21:18:03.042Z,25.23
2017-04-28T21:20:30.418Z,18.82
2017-04-28T21:22:57.778Z,20.45
2017-04-28T21:25:32.030Z,24.85
2017-04-28T21:27:59.384Z,20.98
2017-04-28T21:30:26.835Z,20.75
2017-04-28T21:32:54.195Z,21.78
2017-04-28T21:35:21.671Z,21.30
2017-04-28T21:37:49.029Z,21.17
2017-04-28T21:40:16.414Z,22.22
2017-04-28T21:42:43.752Z,20.63
2017-04-28T21:45:11.232Z,23.48
2017-04-28T21:47:38.558Z,20.90
2017-04-28T21:50:05.935Z,22.17
2017-04-28T21:52:33.242Z,23.15
2017-04-28T21:55:00.598Z,23.93
2017-04-28T21:57:27.928Z,22.78
2017-04-28T21:59:55.346Z,22.75
2017-04-28T22:04:47.175Z,22.50
2017-04-28T22:07:14.549Z,22.63
2017-04-28T22:09:41.826Z,22.00
2017-04-28T22:12:09.187Z,23.00
2017-04-28T22:14:36.728Z,23.77
2017-04-28T22:17:19.898Z,21.28
2017-04-28T22:19:46.620Z,22.75
2017-04-28T22:22:13.947Z,26.13
2017-04-28T22:24:41.277Z,27.10
2017-04-28T22:27:08.603Z,22.80
2017-04-28T22:29:35.913Z,25.05
2017-04-28T22:32:03.253Z,27.22
2017-04-28T22:34:30.564Z,26.32
2017-04-28T22:36:57.949Z,24.02
2017-04-28T22:39:25.267Z,28.32
2017-04-28T22:41:52.563Z,24.27
2017-04-28T22:44:19.926Z,26.48
2017-04-28T22:46:47.224Z,24.82
2017-04-28T22:49:14.579Z,27.33
2017-04-28T22:51:41.930Z,22.97
2017-04-28T22:54:09.212Z,25.42
2017-04-28T22:56:36.552Z,21.62
2017-04-28T22:59:03.957Z,21.10
2017-04-28T23:01:31.270Z,19.68
2017-04-28T23:03:58.641Z,25.10
2017-04-28T23:06:26.018Z,21.95
2017-04-28T23:08:53.288Z,24.77
2017-04-28T23:11:20.583Z,25.77
2017-04-28T23:13:47.971Z,22.72
2017-04-28T23:16:15.244Z,23.52
2017-04-28T23:18:42.515Z,24.38
2017-04-28T23:21:09.888Z,22.52
2017-04-28T23:23:37.237Z,23.27
2017-04-28T23:26:04.563Z,21.13
2017-04-28T23:28:31.913Z,24.45
2017-04-28T23:30:59.213Z,20.53
2017-04-28T23:33:26.512Z,22.88
2017-04-28T23:35:53.799Z,22.72
2017-04-28T23:38:21.056Z,22.87
2017-04-28T23:40:48.393Z,22.82
2017-04-28T23:43:15.783Z,23.38
2017-04-28T23:45:43.248Z,24.97
2017-04-28T23:48:10.542Z,29.38
2017-04-28T23:50:37.900Z,23.82
2017-04-28T23:53:05.188Z,23.78
2017-04-28T23:55:32.511Z,28.30
2017-04-28T23:57:59.831Z,24.85
